sensor_id;sensor_type;location;lat;lon;timestamp;pressure;altitude;pressure_sealevel;temperature;humidity
65384;BME280;51986;52.788;41.368;2022-09-27T00:00:38;99120.13;;;9.62;62.58
65384;BME280;51986;52.788;41.368;2022-09-27T00:03:05;99150.50;;;9.70;63.38
65384;BME280;51986;52.788;41.368;2022-09-27T00:05:32;99122.38;;;9.60;62.65
65384;BME280;51986;52.788;41.368;2022-09-27T00:07:59;99118.91;;;9.70;62.57
65384;BME280;51986;52.788;41.368;2022-09-27T00:10:26;99110.16;;;9.35;63.51
65384;BME280;51986;52.788;41.368;2022-09-27T00:12:54;99119.44;;;9.47;63.53
65384;BME280;51986;52.788;41.368;2022-09-27T00:15:21;99123.97;;;9.50;63.55
65384;BME280;51986;52.788;41.368;2022-09-27T00:17:48;99123.19;;;9.53;63.03
65384;BME280;51986;52.788;41.368;2022-09-27T00:20:14;99114.97;;;9.44;62.95
65384;BME280;51986;52.788;41.368;2022-09-27T00:22:49;99112.69;;;9.46;63.46
65384;BME280;51986;52.788;41.368;2022-09-27T00:25:16;99121.00;;;9.41;63.30
65384;BME280;51986;52.788;41.368;2022-09-27T00:27:43;99106.00;;;9.38;63.32
65384;BME280;51986;52.788;41.368;2022-09-27T00:30:10;99094.34;;;9.35;63.57
65384;BME280;51986;52.788;41.368;2022-09-27T00:32:38;99127.06;;;9.38;63.82
65384;BME280;51986;52.788;41.368;2022-09-27T00:35:05;99106.03;;;9.34;63.87
65384;BME280;51986;52.788;41.368;2022-09-27T00:37:32;99112.88;;;9.21;64.09
65384;BME280;51986;52.788;41.368;2022-09-27T00:39:58;99108.22;;;9.43;63.60
65384;BME280;51986;52.788;41.368;2022-09-27T00:42:25;99096.91;;;9.46;63.02
65384;BME280;51986;52.788;41.368;2022-09-27T00:45:03;99095.81;;;9.40;63.50
65384;BME280;51986;52.788;41.368;2022-09-27T00:47:42;99091.94;;;9.55;62.98
65384;BME280;51986;52.788;41.368;2022-09-27T00:52:54;99101.41;;;9.45;63.35
65384;BME280;51986;52.788;41.368;2022-09-27T00:55:28;99074.41;;;9.38;62.81
65384;BME280;51986;52.788;41.368;2022-09-27T00:57:56;99087.56;;;9.38;63.48
65384;BME280;51986;52.788;41.368;2022-09-27T01:00:23;99078.88;;;9.44;62.98
65384;BME280;51986;52.788;41.368;2022-09-27T01:02:52;99090.44;;;9.54;62.84
65384;BME280;51986;52.788;41.368;2022-09-27T01:05:23;99112.53;;;9.67;62.25
65384;BME280;51986;52.788;41.368;2022-09-27T01:07:51;99086.88;;;9.75;62.08
65384;BME280;51986;52.788;41.368;2022-09-27T01:10:20;99086.84;;;9.78;62.25
65384;BME280;51986;52.788;41.368;2022-09-27T01:12:53;99074.81;;;9.81;61.95
65384;BME280;51986;52.788;41.368;2022-09-27T01:15:28;99096.50;;;9.92;61.57
65384;BME280;51986;52.788;41.368;2022-09-27T01:25:51;99085.66;;;9.87;61.13
65384;BME280;51986;52.788;41.368;2022-09-27T01:28:37;99074.03;;;9.80;61.59
65384;BME280;51986;52.788;41.368;2022-09-27T01:43:23;99092.00;;;10.27;59.91
65384;BME280;51986;52.788;41.368;2022-09-27T01:46:26;99101.72;;;10.37;60.00
65384;BME280;51986;52.788;41.368;2022-09-27T01:49:23;99091.53;;;10.39;59.99
65384;BME280;51986;52.788;41.368;2022-09-27T01:51:59;99087.31;;;10.45;59.72
65384;BME280;51986;52.788;41.368;2022-09-27T01:54:39;99118.31;;;10.68;58.87
65384;BME280;51986;52.788;41.368;2022-09-27T01:57:36;99078.34;;;10.70;58.94
65384;BME280;51986;52.788;41.368;2022-09-27T02:00:10;99074.97;;;10.69;58.45
65384;BME280;51986;52.788;41.368;2022-09-27T02:05:38;99072.44;;;10.89;58.37
65384;BME280;51986;52.788;41.368;2022-09-27T02:08:56;99060.72;;;10.90;58.66
65384;BME280;51986;52.788;41.368;2022-09-27T02:11:56;99053.94;;;10.89;58.02
65384;BME280;51986;52.788;41.368;2022-09-27T02:25:43;99068.34;;;10.85;58.75
65384;BME280;51986;52.788;41.368;2022-09-27T02:30:43;99062.06;;;10.75;58.84
65384;BME280;51986;52.788;41.368;2022-09-27T02:33:37;99060.25;;;10.72;59.09
65384;BME280;51986;52.788;41.368;2022-09-27T02:36:07;99043.59;;;10.75;59.22
65384;BME280;51986;52.788;41.368;2022-09-27T02:38:34;99045.97;;;10.66;59.23
65384;BME280;51986;52.788;41.368;2022-09-27T02:41:01;99066.63;;;10.71;59.08
65384;BME280;51986;52.788;41.368;2022-09-27T02:43:31;99072.34;;;10.66;59.08
65384;BME280;51986;52.788;41.368;2022-09-27T02:51:35;99042.72;;;10.58;58.99
65384;BME280;51986;52.788;41.368;2022-09-27T02:57:06;99053.13;;;10.38;59.40
65384;BME280;51986;52.788;41.368;2022-09-27T03:00:04;99048.66;;;10.31;59.59
65384;BME280;51986;52.788;41.368;2022-09-27T03:03:20;99039.25;;;10.30;60.10
65384;BME280;51986;52.788;41.368;2022-09-27T03:06:09;99101.38;;;10.35;59.90
65384;BME280;51986;52.788;41.368;2022-09-27T03:08:37;99061.50;;;10.29;59.89
65384;BME280;51986;52.788;41.368;2022-09-27T03:11:05;99081.84;;;10.29;59.39
65384;BME280;51986;52.788;41.368;2022-09-27T03:13:32;99035.84;;;10.34;59.00
65384;BME280;51986;52.788;41.368;2022-09-27T03:16:19;99038.22;;;10.21;59.65
65384;BME280;51986;52.788;41.368;2022-09-27T03:19:15;99056.53;;;10.35;59.50
65384;BME280;51986;52.788;41.368;2022-09-27T03:22:18;99060.22;;;10.41;59.12
65384;BME280;51986;52.788;41.368;2022-09-27T03:24:45;99067.00;;;10.42;59.43
65384;BME280;51986;52.788;41.368;2022-09-27T03:27:12;99069.19;;;10.47;59.72
65384;BME280;51986;52.788;41.368;2022-09-27T03:29:39;99072.50;;;10.55;59.33
65384;BME280;51986;52.788;41.368;2022-09-27T03:32:07;99060.41;;;10.57;59.24
65384;BME280;51986;52.788;41.368;2022-09-27T03:34:57;99066.34;;;10.65;59.24
65384;BME280;51986;52.788;41.368;2022-09-27T03:37:24;99050.84;;;10.40;59.54
65384;BME280;51986;52.788;41.368;2022-09-27T03:39:51;99074.28;;;10.62;59.59
65384;BME280;51986;52.788;41.368;2022-09-27T03:42:18;99076.84;;;10.69;59.30
65384;BME280;51986;52.788;41.368;2022-09-27T03:44:49;99077.56;;;10.73;58.58
65384;BME280;51986;52.788;41.368;2022-09-27T03:47:21;99054.16;;;10.75;58.79
65384;BME280;51986;52.788;41.368;2022-09-27T03:49:48;99062.78;;;10.79;58.78
65384;BME280;51986;52.788;41.368;2022-09-27T03:52:15;99066.09;;;10.83;58.07
65384;BME280;51986;52.788;41.368;2022-09-27T03:54:43;99069.25;;;11.01;58.18
65384;BME280;51986;52.788;41.368;2022-09-27T03:57:10;99057.22;;;11.00;58.07
65384;BME280;51986;52.788;41.368;2022-09-27T03:59:38;99066.06;;;10.87;58.49
65384;BME280;51986;52.788;41.368;2022-09-27T04:02:38;99065.41;;;10.79;59.24
65384;BME280;51986;52.788;41.368;2022-09-27T04:05:25;99065.25;;;10.90;59.05
65384;BME280;51986;52.788;41.368;2022-09-27T04:08:02;99070.16;;;10.91;58.73
65384;BME280;51986;52.788;41.368;2022-09-27T04:10:31;99089.28;;;10.95;58.74
65384;BME280;51986;52.788;41.368;2022-09-27T04:13:30;99057.97;;;11.24;58.33
65384;BME280;51986;52.788;41.368;2022-09-27T04:15:57;99075.34;;;11.22;57.74
65384;BME280;51986;52.788;41.368;2022-09-27T04:18:59;99081.50;;;11.15;57.83
65384;BME280;51986;52.788;41.368;2022-09-27T04:21:52;99073.63;;;11.12;58.36
65384;BME280;51986;52.788;41.368;2022-09-27T04:24:19;99063.09;;;11.08;57.93
65384;BME280;51986;52.788;41.368;2022-09-27T04:26:57;99060.31;;;11.19;57.49
65384;BME280;51986;52.788;41.368;2022-09-27T04:29:25;99076.13;;;11.19;58.57
65384;BME280;51986;52.788;41.368;2022-09-27T04:31:53;99078.22;;;11.31;58.04
65384;BME280;51986;52.788;41.368;2022-09-27T04:34:45;99076.78;;;11.26;58.51
65384;BME280;51986;52.788;41.368;2022-09-27T04:37:19;99054.28;;;11.18;57.51
65384;BME280;51986;52.788;41.368;2022-09-27T04:39:48;99072.38;;;11.20;58.61
65384;BME280;51986;52.788;41.368;2022-09-27T04:42:16;99043.38;;;11.16;58.32
65384;BME280;51986;52.788;41.368;2022-09-27T04:44:42;99061.34;;;11.25;58.45
65384;BME280;51986;52.788;41.368;2022-09-27T04:47:10;99080.28;;;11.20;59.25
65384;BME280;51986;52.788;41.368;2022-09-27T04:49:37;99053.25;;;11.36;58.41
65384;BME280;51986;52.788;41.368;2022-09-27T04:52:04;99070.94;;;11.39;58.63
65384;BME280;51986;52.788;41.368;2022-09-27T04:54:31;99091.63;;;11.44;58.35
65384;BME280;51986;52.788;41.368;2022-09-27T04:57:07;99074.91;;;11.50;57.46
65384;BME280;51986;52.788;41.368;2022-09-27T04:59:36;99081.63;;;11.55;56.29
65384;BME280;51986;52.788;41.368;2022-09-27T05:02:03;99058.31;;;11.50;56.05
65384;BME280;51986;52.788;41.368;2022-09-27T05:04:47;99089.50;;;11.35;56.27
65384;BME280;51986;52.788;41.368;2022-09-27T05:07:18;99052.63;;;11.28;56.10
65384;BME280;51986;52.788;41.368;2022-09-27T05:09:50;99115.03;;;11.42;56.30
65384;BME280;51986;52.788;41.368;2022-09-27T05:12:18;99104.47;;;11.42;56.12
65384;BME280;51986;52.788;41.368;2022-09-27T05:14:55;99096.66;;;11.34;56.41
65384;BME280;51986;52.788;41.368;2022-09-27T05:17:40;99094.94;;;11.24;56.07
65384;BME280;51986;52.788;41.368;2022-09-27T05:20:26;99061.69;;;11.27;56.37
65384;BME280;51986;52.788;41.368;2022-09-27T05:23:00;99068.41;;;11.31;56.58
65384;BME280;51986;52.788;41.368;2022-09-27T05:25:27;99059.47;;;11.25;56.85
65384;BME280;51986;52.788;41.368;2022-09-27T05:28:17;99065.81;;;11.28;56.76
65384;BME280;51986;52.788;41.368;2022-09-27T05:30:44;99080.28;;;11.20;57.29
65384;BME280;51986;52.788;41.368;2022-09-27T05:33:16;99078.59;;;11.06;57.48
65384;BME280;51986;52.788;41.368;2022-09-27T05:35:56;99066.69;;;11.21;57.31
65384;BME280;51986;52.788;41.368;2022-09-27T05:38:27;99056.97;;;11.15;57.33
65384;BME280;51986;52.788;41.368;2022-09-27T05:40:56;99042.19;;;11.21;57.40
65384;BME280;51986;52.788;41.368;2022-09-27T05:43:24;99051.19;;;11.23;56.87
65384;BME280;51986;52.788;41.368;2022-09-27T05:45:51;99059.91;;;11.20;57.12
65384;BME280;51986;52.788;41.368;2022-09-27T05:48:19;99004.06;;;10.98;57.81
65384;BME280;51986;52.788;41.368;2022-09-27T05:50:59;99047.31;;;11.04;57.46
65384;BME280;51986;52.788;41.368;2022-09-27T05:53:26;99016.06;;;11.03;57.37
65384;BME280;51986;52.788;41.368;2022-09-27T05:55:53;99037.53;;;11.28;57.25
65384;BME280;51986;52.788;41.368;2022-09-27T05:58:29;99044.38;;;11.26;57.39
65384;BME280;51986;52.788;41.368;2022-09-27T06:01:10;99033.38;;;11.27;57.73
65384;BME280;51986;52.788;41.368;2022-09-27T06:04:08;99042.66;;;11.39;57.63
65384;BME280;51986;52.788;41.368;2022-09-27T06:06:38;99019.22;;;11.41;57.73
65384;BME280;51986;52.788;41.368;2022-09-27T06:09:09;99014.34;;;11.40;58.29
65384;BME280;51986;52.788;41.368;2022-09-27T06:11:37;99020.75;;;11.39;58.15
65384;BME280;51986;52.788;41.368;2022-09-27T06:14:14;99029.72;;;11.45;57.97
65384;BME280;51986;52.788;41.368;2022-09-27T06:17:27;99029.66;;;11.48;57.96
65384;BME280;51986;52.788;41.368;2022-09-27T06:19:54;99017.59;;;11.47;58.22
65384;BME280;51986;52.788;41.368;2022-09-27T06:22:22;99027.94;;;11.38;58.21
65384;BME280;51986;52.788;41.368;2022-09-27T06:24:57;99026.13;;;11.35;58.33
65384;BME280;51986;52.788;41.368;2022-09-27T06:27:26;99022.19;;;11.43;58.43
65384;BME280;51986;52.788;41.368;2022-09-27T06:30:16;99020.88;;;11.31;58.19
65384;BME280;51986;52.788;41.368;2022-09-27T06:32:59;99028.84;;;11.28;58.46
65384;BME280;51986;52.788;41.368;2022-09-27T06:35:34;99028.09;;;11.27;58.97
65384;BME280;51986;52.788;41.368;2022-09-27T06:38:03;99023.28;;;11.22;59.06
65384;BME280;51986;52.788;41.368;2022-09-27T06:40:31;99020.38;;;11.17;59.59
65384;BME280;51986;52.788;41.368;2022-09-27T06:43:15;99033.16;;;11.18;59.34
65384;BME280;51986;52.788;41.368;2022-09-27T06:46:02;99032.31;;;11.25;59.82
65384;BME280;51986;52.788;41.368;2022-09-27T06:48:48;99016.25;;;11.16;59.53
65384;BME280;51986;52.788;41.368;2022-09-27T06:51:17;98998.50;;;11.16;60.23
65384;BME280;51986;52.788;41.368;2022-09-27T06:53:44;98994.03;;;11.13;60.06
65384;BME280;51986;52.788;41.368;2022-09-27T06:56:11;99022.84;;;11.27;60.54
65384;BME280;51986;52.788;41.368;2022-09-27T06:58:46;99006.13;;;11.11;61.42
65384;BME280;51986;52.788;41.368;2022-09-27T07:01:36;99005.84;;;11.28;60.96
65384;BME280;51986;52.788;41.368;2022-09-27T07:04:21;99008.56;;;11.25;60.93
65384;BME280;51986;52.788;41.368;2022-09-27T07:07:07;99009.28;;;11.25;61.39
65384;BME280;51986;52.788;41.368;2022-09-27T07:09:36;98993.28;;;11.13;61.87
65384;BME280;51986;52.788;41.368;2022-09-27T07:12:04;99004.81;;;11.22;61.33
65384;BME280;51986;52.788;41.368;2022-09-27T07:14:31;98995.69;;;11.27;62.42
65384;BME280;51986;52.788;41.368;2022-09-27T07:17:05;99016.94;;;11.20;61.47
65384;BME280;51986;52.788;41.368;2022-09-27T07:19:36;98979.97;;;11.20;61.92
65384;BME280;51986;52.788;41.368;2022-09-27T07:22:09;99012.78;;;11.19;61.85
65384;BME280;51986;52.788;41.368;2022-09-27T07:24:37;98972.28;;;11.05;62.92
65384;BME280;51986;52.788;41.368;2022-09-27T07:27:05;99000.22;;;11.26;62.24
65384;BME280;51986;52.788;41.368;2022-09-27T07:29:32;98971.69;;;10.94;63.07
65384;BME280;51986;52.788;41.368;2022-09-27T07:32:10;98977.91;;;11.07;63.02
65384;BME280;51986;52.788;41.368;2022-09-27T07:34:37;98984.63;;;11.12;62.07
65384;BME280;51986;52.788;41.368;2022-09-27T07:37:05;98991.44;;;11.09;62.34
65384;BME280;51986;52.788;41.368;2022-09-27T07:39:36;98975.72;;;11.02;62.57
65384;BME280;51986;52.788;41.368;2022-09-27T07:42:04;98983.94;;;10.81;63.26
65384;BME280;51986;52.788;41.368;2022-09-27T07:44:31;98981.75;;;10.76;63.71
65384;BME280;51986;52.788;41.368;2022-09-27T07:47:27;98990.88;;;10.71;64.10
65384;BME280;51986;52.788;41.368;2022-09-27T07:50:07;98988.81;;;10.86;64.06
65384;BME280;51986;52.788;41.368;2022-09-27T07:52:53;98985.09;;;10.80;64.18
65384;BME280;51986;52.788;41.368;2022-09-27T07:55:43;99002.19;;;10.72;64.62
65384;BME280;51986;52.788;41.368;2022-09-27T08:00:58;98974.16;;;10.81;64.93
65384;BME280;51986;52.788;41.368;2022-09-27T08:03:25;98938.75;;;10.79;64.92
65384;BME280;51986;52.788;41.368;2022-09-27T08:05:52;98937.13;;;10.62;65.54
65384;BME280;51986;52.788;41.368;2022-09-27T08:08:19;98946.66;;;10.55;66.35
65384;BME280;51986;52.788;41.368;2022-09-27T08:10:48;98950.53;;;10.47;65.94
65384;BME280;51986;52.788;41.368;2022-09-27T08:13:16;98933.34;;;10.39;66.39
65384;BME280;51986;52.788;41.368;2022-09-27T08:15:43;98933.13;;;10.53;66.50
65384;BME280;51986;52.788;41.368;2022-09-27T08:18:10;98930.41;;;10.57;66.52
65384;BME280;51986;52.788;41.368;2022-09-27T08:21:09;98926.44;;;10.72;65.71
65384;BME280;51986;52.788;41.368;2022-09-27T08:23:55;98914.56;;;10.84;65.96
65384;BME280;51986;52.788;41.368;2022-09-27T08:26:30;98922.84;;;10.86;66.31
65384;BME280;51986;52.788;41.368;2022-09-27T08:29:06;98922.69;;;10.70;66.47
65384;BME280;51986;52.788;41.368;2022-09-27T08:31:40;98922.94;;;10.79;66.53
65384;BME280;51986;52.788;41.368;2022-09-27T08:34:07;98958.16;;;10.92;65.68
65384;BME280;51986;52.788;41.368;2022-09-27T08:36:34;98920.81;;;10.70;66.25
65384;BME280;51986;52.788;41.368;2022-09-27T08:39:02;98913.34;;;10.65;66.08
65384;BME280;51986;52.788;41.368;2022-09-27T08:42:09;98911.16;;;10.60;66.62
65384;BME280;51986;52.788;41.368;2022-09-27T08:48:17;98932.56;;;10.66;66.58
65384;BME280;51986;52.788;41.368;2022-09-27T08:50:45;98919.78;;;10.64;65.77
65384;BME280;51986;52.788;41.368;2022-09-27T08:53:16;98930.91;;;10.75;66.38
65384;BME280;51986;52.788;41.368;2022-09-27T08:55:48;98942.94;;;11.00;65.99
65384;BME280;51986;52.788;41.368;2022-09-27T08:58:27;98915.56;;;11.14;65.66
65384;BME280;51986;52.788;41.368;2022-09-27T09:01:02;98919.31;;;11.16;65.11
65384;BME280;51986;52.788;41.368;2022-09-27T09:03:39;98906.69;;;11.04;65.21
65384;BME280;51986;52.788;41.368;2022-09-27T09:06:21;98953.22;;;10.94;65.81
65384;BME280;51986;52.788;41.368;2022-09-27T09:20:24;98895.41;;;11.23;65.68
65384;BME280;51986;52.788;41.368;2022-09-27T09:35:41;98876.66;;;11.57;64.06
65384;BME280;51986;52.788;41.368;2022-09-27T09:38:17;98877.63;;;11.87;64.32
65384;BME280;51986;52.788;41.368;2022-09-27T09:46:40;98867.50;;;12.18;64.09
65384;BME280;51986;52.788;41.368;2022-09-27T09:52:14;98837.78;;;11.78;64.20
65384;BME280;51986;52.788;41.368;2022-09-27T09:55:05;98849.50;;;11.77;65.08
65384;BME280;51986;52.788;41.368;2022-09-27T09:57:40;98834.25;;;11.84;64.44
65384;BME280;51986;52.788;41.368;2022-09-27T10:00:21;98837.97;;;11.87;63.88
65384;BME280;51986;52.788;41.368;2022-09-27T10:02:53;98838.44;;;11.62;65.04
65384;BME280;51986;52.788;41.368;2022-09-27T10:05:23;98840.53;;;11.71;64.30
65384;BME280;51986;52.788;41.368;2022-09-27T10:08:03;98827.81;;;11.66;64.00
65384;BME280;51986;52.788;41.368;2022-09-27T10:10:41;98839.28;;;11.79;64.08
65384;BME280;51986;52.788;41.368;2022-09-27T10:13:43;98826.00;;;11.82;64.15
65384;BME280;51986;52.788;41.368;2022-09-27T10:16:13;98819.47;;;11.67;63.93
65384;BME280;51986;52.788;41.368;2022-09-27T10:18:42;98812.03;;;11.82;63.57
65384;BME280;51986;52.788;41.368;2022-09-27T10:21:21;98808.81;;;11.91;63.28
65384;BME280;51986;52.788;41.368;2022-09-27T10:24:09;98792.13;;;11.77;64.24
65384;BME280;51986;52.788;41.368;2022-09-27T10:27:01;98791.03;;;11.75;64.23
65384;BME280;51986;52.788;41.368;2022-09-27T10:29:32;98786.91;;;11.74;64.81
65384;BME280;51986;52.788;41.368;2022-09-27T10:32:20;98779.72;;;11.91;64.77
65384;BME280;51986;52.788;41.368;2022-09-27T10:34:49;98770.41;;;11.86;64.09
65384;BME280;51986;52.788;41.368;2022-09-27T10:37:21;98786.56;;;11.72;64.47
65384;BME280;51986;52.788;41.368;2022-09-27T10:40:20;98776.69;;;11.92;64.14
65384;BME280;51986;52.788;41.368;2022-09-27T10:42:50;98785.75;;;11.91;65.38
65384;BME280;51986;52.788;41.368;2022-09-27T10:45:32;98779.47;;;11.85;65.67
65384;BME280;51986;52.788;41.368;2022-09-27T10:48:20;98802.53;;;12.01;65.67
65384;BME280;51986;52.788;41.368;2022-09-27T10:53:49;98778.34;;;12.02;65.45
65384;BME280;51986;52.788;41.368;2022-09-27T10:56:26;98805.16;;;12.01;65.37
65384;BME280;51986;52.788;41.368;2022-09-27T10:58:54;98786.78;;;11.97;65.62
65384;BME280;51986;52.788;41.368;2022-09-27T11:01:23;98793.22;;;11.96;66.27
65384;BME280;51986;52.788;41.368;2022-09-27T11:04:28;98772.72;;;12.00;65.98
65384;BME280;51986;52.788;41.368;2022-09-27T11:07:16;98777.78;;;12.11;66.33
65384;BME280;51986;52.788;41.368;2022-09-27T11:09:53;98816.25;;;12.28;66.58
65384;BME280;51986;52.788;41.368;2022-09-27T11:12:22;98797.19;;;12.21;66.08
65384;BME280;51986;52.788;41.368;2022-09-27T11:14:57;98766.84;;;12.09;67.37
65384;BME280;51986;52.788;41.368;2022-09-27T11:17:31;98774.19;;;12.18;67.16
65384;BME280;51986;52.788;41.368;2022-09-27T11:28:28;98774.09;;;12.54;67.25
65384;BME280;51986;52.788;41.368;2022-09-27T11:34:11;98774.84;;;12.67;67.88
65384;BME280;51986;52.788;41.368;2022-09-27T11:43:00;98796.13;;;12.64;68.67
65384;BME280;51986;52.788;41.368;2022-09-27T11:46:11;98771.31;;;12.74;69.00
65384;BME280;51986;52.788;41.368;2022-09-27T11:52:27;98761.13;;;12.72;69.16
65384;BME280;51986;52.788;41.368;2022-09-27T12:04:38;98744.03;;;12.60;70.26
65384;BME280;51986;52.788;41.368;2022-09-27T12:06:45;98729.00;;;12.57;70.55
65384;BME280;51986;52.788;41.368;2022-09-27T12:09:37;98742.66;;;12.56;70.80
65384;BME280;51986;52.788;41.368;2022-09-27T12:14:44;98735.13;;;12.54;71.09
65384;BME280;51986;52.788;41.368;2022-09-27T12:17:22;98723.69;;;12.28;72.29
65384;BME280;51986;52.788;41.368;2022-09-27T12:19:58;98718.97;;;12.36;71.82
65384;BME280;51986;52.788;41.368;2022-09-27T12:22:57;98724.53;;;12.25;72.03
65384;BME280;51986;52.788;41.368;2022-09-27T12:25:40;98719.41;;;12.18;71.96
65384;BME280;51986;52.788;41.368;2022-09-27T12:28:35;98697.38;;;12.08;72.05
65384;BME280;51986;52.788;41.368;2022-09-27T12:31:48;98739.78;;;12.34;71.72
65384;BME280;51986;52.788;41.368;2022-09-27T12:34:36;98718.38;;;12.16;72.18
65384;BME280;51986;52.788;41.368;2022-09-27T12:39:50;98736.38;;;12.21;72.80
65384;BME280;51986;52.788;41.368;2022-09-27T12:42:39;98729.59;;;12.03;72.94
65384;BME280;51986;52.788;41.368;2022-09-27T12:51:12;98720.97;;;12.32;72.76
65384;BME280;51986;52.788;41.368;2022-09-27T13:04:49;98710.25;;;12.23;73.03
65384;BME280;51986;52.788;41.368;2022-09-27T13:07:50;98695.72;;;12.15;73.15
65384;BME280;51986;52.788;41.368;2022-09-27T13:10:28;98704.69;;;12.33;72.70
65384;BME280;51986;52.788;41.368;2022-09-27T13:13:14;98711.06;;;12.36;73.02
65384;BME280;51986;52.788;41.368;2022-09-27T13:15:44;98691.78;;;12.35;72.60
65384;BME280;51986;52.788;41.368;2022-09-27T13:18:50;98709.97;;;12.33;72.92
65384;BME280;51986;52.788;41.368;2022-09-27T13:24:44;98700.50;;;12.20;73.36
65384;BME280;51986;52.788;41.368;2022-09-27T13:27:39;98691.28;;;12.12;74.05
65384;BME280;51986;52.788;41.368;2022-09-27T13:49:42;98671.69;;;12.38;74.29
65384;BME280;51986;52.788;41.368;2022-09-27T13:52:34;98697.59;;;12.30;74.81
65384;BME280;51986;52.788;41.368;2022-09-27T13:55:40;98689.09;;;12.52;74.16
65384;BME280;51986;52.788;41.368;2022-09-27T14:00:55;98677.19;;;12.44;74.06
65384;BME280;51986;52.788;41.368;2022-09-27T14:03:36;98670.53;;;12.39;74.65
65384;BME280;51986;52.788;41.368;2022-09-27T14:06:13;98677.78;;;12.51;74.89
65384;BME280;51986;52.788;41.368;2022-09-27T14:08:56;98681.97;;;12.36;75.44
65384;BME280;51986;52.788;41.368;2022-09-27T14:11:33;98646.84;;;12.48;74.94
65384;BME280;51986;52.788;41.368;2022-09-27T14:14:02;98611.75;;;12.19;75.10
65384;BME280;51986;52.788;41.368;2022-09-27T14:16:42;98608.09;;;12.29;75.92
65384;BME280;51986;52.788;41.368;2022-09-27T14:19:23;98664.38;;;12.58;75.36
65384;BME280;51986;52.788;41.368;2022-09-27T14:21:52;98637.66;;;12.40;75.66
65384;BME280;51986;52.788;41.368;2022-09-27T14:27:28;98642.56;;;12.54;76.03
65384;BME280;51986;52.788;41.368;2022-09-27T14:30:23;98663.28;;;12.56;76.22
65384;BME280;51986;52.788;41.368;2022-09-27T14:33:02;98634.16;;;12.43;76.01
65384;BME280;51986;52.788;41.368;2022-09-27T14:35:48;98643.50;;;12.60;75.68
65384;BME280;51986;52.788;41.368;2022-09-27T14:41:23;98626.56;;;12.58;75.78
65384;BME280;51986;52.788;41.368;2022-09-27T14:43:52;98637.06;;;12.61;76.11
65384;BME280;51986;52.788;41.368;2022-09-27T14:46:28;98627.31;;;12.58;75.86
65384;BME280;51986;52.788;41.368;2022-09-27T14:48:56;98638.66;;;12.72;75.21
65384;BME280;51986;52.788;41.368;2022-09-27T14:51:28;98611.03;;;12.60;75.79
65384;BME280;51986;52.788;41.368;2022-09-27T14:53:58;98616.22;;;12.76;75.54
65384;BME280;51986;52.788;41.368;2022-09-27T14:56:29;98624.28;;;12.85;74.80
65384;BME280;51986;52.788;41.368;2022-09-27T14:59:16;98605.84;;;12.82;75.16
65384;BME280;51986;52.788;41.368;2022-09-27T15:01:49;98623.75;;;12.91;74.92
65384;BME280;51986;52.788;41.368;2022-09-27T15:04:19;98594.84;;;12.71;75.21
65384;BME280;51986;52.788;41.368;2022-09-27T15:06:48;98603.31;;;12.91;74.80
65384;BME280;51986;52.788;41.368;2022-09-27T15:09:16;98618.44;;;12.91;74.89
65384;BME280;51986;52.788;41.368;2022-09-27T15:11:48;98602.47;;;12.81;74.93
65384;BME280;51986;52.788;41.368;2022-09-27T15:14:17;98608.94;;;12.93;75.14
65384;BME280;51986;52.788;41.368;2022-09-27T15:16:48;98598.25;;;12.84;75.00
65384;BME280;51986;52.788;41.368;2022-09-27T15:19:25;98608.59;;;12.91;75.42
65384;BME280;51986;52.788;41.368;2022-09-27T15:21:55;98595.25;;;12.82;75.30
65384;BME280;51986;52.788;41.368;2022-09-27T15:24:43;98611.19;;;13.07;75.12
65384;BME280;51986;52.788;41.368;2022-09-27T15:27:22;98596.22;;;12.88;76.18
65384;BME280;51986;52.788;41.368;2022-09-27T15:29:55;98609.75;;;12.77;76.44
65384;BME280;51986;52.788;41.368;2022-09-27T15:35:21;98603.22;;;12.95;76.13
65384;BME280;51986;52.788;41.368;2022-09-27T15:38:11;98598.47;;;13.02;75.96
65384;BME280;51986;52.788;41.368;2022-09-27T15:43:20;98606.16;;;12.97;76.09
65384;BME280;51986;52.788;41.368;2022-09-27T15:45:51;98592.56;;;12.98;75.86
65384;BME280;51986;52.788;41.368;2022-09-27T15:48:19;98602.78;;;12.96;75.92
65384;BME280;51986;52.788;41.368;2022-09-27T15:50:47;98593.28;;;12.99;76.24
65384;BME280;51986;52.788;41.368;2022-09-27T15:56:04;98573.47;;;13.03;75.92
65384;BME280;51986;52.788;41.368;2022-09-27T15:58:34;98538.44;;;12.99;75.98
65384;BME280;51986;52.788;41.368;2022-09-27T16:01:05;98566.56;;;13.19;75.31
65384;BME280;51986;52.788;41.368;2022-09-27T16:03:33;98568.91;;;13.17;75.52
65384;BME280;51986;52.788;41.368;2022-09-27T16:06:02;98571.22;;;13.27;75.10
65384;BME280;51986;52.788;41.368;2022-09-27T16:08:50;98565.81;;;13.31;75.15
65384;BME280;51986;52.788;41.368;2022-09-27T16:11:17;98560.78;;;12.98;75.73
65384;BME280;51986;52.788;41.368;2022-09-27T16:13:44;98548.47;;;13.17;75.62
65384;BME280;51986;52.788;41.368;2022-09-27T16:16:16;98564.31;;;13.30;75.41
65384;BME280;51986;52.788;41.368;2022-09-27T16:18:46;98564.78;;;13.16;75.50
65384;BME280;51986;52.788;41.368;2022-09-27T16:21:13;98558.44;;;13.26;74.93
65384;BME280;51986;52.788;41.368;2022-09-27T16:23:40;98560.53;;;13.31;74.93
65384;BME280;51986;52.788;41.368;2022-09-27T16:26:07;98557.66;;;13.25;74.85
65384;BME280;51986;52.788;41.368;2022-09-27T16:28:34;98564.22;;;13.33;74.62
65384;BME280;51986;52.788;41.368;2022-09-27T16:31:05;98559.91;;;13.27;75.28
65384;BME280;51986;52.788;41.368;2022-09-27T16:33:33;98567.31;;;13.19;75.13
65384;BME280;51986;52.788;41.368;2022-09-27T16:36:05;98536.44;;;13.38;75.07
65384;BME280;51986;52.788;41.368;2022-09-27T16:38:32;98545.47;;;13.28;75.59